logo
Search for airport 
image banner adimage banner adimage banner ad
image banner ad

FLLR - Luelo

Located in , Zambia

ICAO - , IATA -

Data provided by Airmate  

General information

Coordinates: S11°53'2" E32°33'50"
Elevation is 2088 feet MSL.
 
View others Airports in Northern Province

Operational data

Special qualification required
Current time UTC:
Current local time:
Weather at : - ( 0 km )
METAR: RCTP 251712Z 07008KT 9999 -SHRA FEW008 BKN014 BKN090 26/26 Q0990 NOSIG RMK A2924
View NOTAMs / SUP AIP / TFR affecting this airport [VIEW]
Communications frequencies: [VIEW]

Runways:

Airport contact information

Address: Zambia

Satellite view of FLLR